Time;durP1;ratioP1;P1;durP2;ratioP2;P2;SDS_P1;SDS_P2;PMS_P1;PMS_P2;Temp;Humidity;BMP_temperature;BMP_pressure;BME280_temperature;BME280_humidity;BME280_pressure;Samples;Min_cycle;Max_cycle;Signal;HPM_P1;HPM_P2
2022/05/08 11:58:32;;;;;;;5.53;4.18;;;;;;;21.50;47.72;94396.81;5141467;27;20292;-70
2022/05/08 12:01:41;;;;;;;4.90;4.40;;;;;;;21.10;48.89;94396.72;5093916;28;20198;-72
2022/05/08 12:05:42;;;;;;;4.70;4.07;;;;;;;20.18;50.87;94394.31;5063329;27;21125;-73
2022/05/08 12:08:22;;;;;;;5.63;4.20;;;;;;;22.97;44.97;94399.22;5016951;28;89338;-74
2022/05/08 12:10:50;;;;;;;3.90;3.25;;;;;;;23.88;45.29;94392.03;5041178;28;20195;-73
2022/05/08 12:13:15;;;;;;;4.03;3.42;;;;;;;23.56;44.17;94392.53;5021723;28;20231;-72
2022/05/08 12:15:42;;;;;;;7.03;3.47;;;;;;;24.00;42.43;94386.66;5001903;28;84436;-72
2022/05/08 12:18:07;;;;;;;3.53;3.22;;;;;;;23.66;43.23;94389.97;4995894;28;20731;-70
2022/05/08 12:23:56;;;;;;;6.65;3.72;;;;;;;21.37;46.44;94384.97;5139183;27;20695;-71
2022/05/08 12:26:42;;;;;;;5.38;3.92;;;;;;;20.98;47.90;94391.22;5096172;27;84034;-72
2022/05/08 12:29:32;;;;;;;8.73;4.60;;;;;;;20.70;48.83;94390.09;5064499;28;20200;-68
2022/05/08 12:32:17;;;;;;;4.72;4.40;;;;;;;19.64;51.35;94389.78;5082422;28;20234;-70
2022/05/08 12:35:04;;;;;;;5.72;4.32;;;;;;;20.28;49.94;94386.19;5086730;28;20187;-71
2022/05/08 12:37:49;;;;;;;13.23;5.40;;;;;;;19.66;52.81;94392.72;5075352;28;20180;-70
2022/05/08 12:40:35;;;;;;;4.90;4.50;;;;;;;18.53;54.57;94388.06;5091968;28;20249;-70
2022/05/08 12:43:19;;;;;;;6.50;4.93;;;;;;;18.69;54.72;94388.91;5072810;28;20286;-70
2022/05/08 12:46:07;;;;;;;9.27;5.30;;;;;;;18.58;55.34;94389.75;5089024;28;20191;-70
2022/05/08 12:48:51;;;;;;;6.87;5.90;;;;;;;18.53;54.84;94388.78;5082702;28;20563;-70
2022/05/08 12:51:35;;;;;;;7.00;5.83;;;;;;;18.47;54.67;94379.25;5070136;28;20191;-68
2022/05/08 12:54:20;;;;;;;7.10;5.67;;;;;;;18.08;55.85;94394.34;5090168;28;20199;-69
2022/05/08 12:57:07;;;;;;;6.07;5.43;;;;;;;17.64;57.09;94392.81;5091345;28;20204;-69
2022/05/08 12:59:53;;;;;;;6.53;5.37;;;;;;;16.97;58.37;94383.50;5103456;28;20254;-70
2022/05/08 13:02:37;;;;;;;6.50;5.70;;;;;;;17.03;58.92;94397.28;5077550;28;20203;-69
2022/05/08 13:05:22;;;;;;;6.57;5.40;;;;;;;16.76;59.63;94385.84;5076105;28;20188;-69
2022/05/08 13:08:07;;;;;;;5.70;5.20;;;;;;;16.81;59.64;94391.09;5089559;28;20208;-69
2022/05/08 13:10:52;;;;;;;9.83;5.40;;;;;;;17.11;59.05;94389.19;5069585;28;20265;-68
2022/05/08 13:13:37;;;;;;;9.47;8.10;;;;;;;16.93;59.23;94388.22;5071671;28;20208;-69
2022/05/08 13:16:23;;;;;;;7.57;6.70;;;;;;;17.47;58.32;94381.91;5057063;28;20580;-69
2022/05/08 13:19:08;;;;;;;27.77;25.27;;;;;;;17.24;58.51;94382.84;5057265;28;20606;-69
2022/05/08 13:21:53;;;;;;;6.03;5.43;;;;;;;17.77;56.94;94382.81;5051987;28;20196;-70
2022/05/08 13:24:38;;;;;;;7.97;5.67;;;;;;;17.56;57.55;94386.66;5080983;28;20311;-69
2022/05/08 13:27:22;;;;;;;29.37;26.50;;;;;;;17.18;59.25;94379.69;5048479;28;20284;-70
2022/05/08 13:30:08;;;;;;;53.40;47.77;;;;;;;17.57;58.19;94378.91;5051150;28;20193;-69
2022/05/08 13:32:52;;;;;;;7.87;7.17;;;;;;;17.61;56.92;94379.88;5063906;28;20224;-69
2022/05/08 13:35:36;;;;;;;6.93;4.50;;;;;;;17.75;57.75;94377.03;5042873;28;20196;-70
2022/05/08 13:38:20;;;;;;;5.87;5.10;;;;;;;17.94;57.03;94370.22;5044521;28;20274;-69
2022/05/08 13:41:05;;;;;;;5.37;4.87;;;;;;;18.30;56.29;94365.63;5046380;28;20215;-70
2022/05/08 13:43:51;;;;;;;4.70;4.30;;;;;;;17.97;57.19;94371.78;5049404;28;20269;-70
2022/05/08 13:46:36;;;;;;;4.80;4.40;;;;;;;18.51;55.23;94373.78;5072406;28;20266;-70
2022/05/08 13:49:24;;;;;;;5.80;4.27;;;;;;;18.25;56.50;94363.97;5049415;28;20244;-69
2022/05/08 13:52:09;;;;;;;4.47;4.17;;;;;;;18.36;56.60;94368.78;5036884;28;20217;-70
2022/05/08 13:54:54;;;;;;;5.07;4.30;;;;;;;18.31;56.57;94361.44;5055037;28;20239;-69
2022/05/08 13:57:39;;;;;;;5.63;4.53;;;;;;;18.74;55.11;94362.16;5041172;28;20185;-69
2022/05/08 14:00:24;;;;;;;8.45;3.97;;;;;;;19.04;53.86;94364.97;5041336;28;20259;-69
2022/05/08 14:03:10;;;;;;;6.75;4.28;;;;;;;18.50;55.11;94358.13;5072547;28;20231;-69
2022/05/08 14:05:54;;;;;;;5.15;4.75;;;;;;;18.41;55.64;94359.09;5057839;28;20665;-70
2022/05/08 14:08:39;;;;;;;4.85;4.55;;;;;;;18.11;57.30;94361.16;5056945;28;20216;-69
2022/05/08 14:11:24;;;;;;;7.10;4.93;;;;;;;18.12;56.09;94362.63;5063882;28;20241;-70
2022/05/08 14:14:11;;;;;;;6.67;5.10;;;;;;;18.45;54.87;94364.97;5052199;28;20470;-70
2022/05/08 14:16:59;;;;;;;6.23;4.90;;;;;;;18.95;54.73;94358.16;5070866;28;20222;-69
2022/05/08 14:19:43;;;;;;;5.67;5.00;;;;;;;18.72;54.39;94359.22;5056570;28;20553;-70
2022/05/08 14:22:27;;;;;;;5.97;5.33;;;;;;;19.04;53.09;94350.75;5044448;28;20229;-69
2022/05/08 14:25:13;;;;;;;5.55;5.05;;;;;;;18.99;53.98;94359.09;5042026;28;20201;-70
2022/05/08 14:27:57;;;;;;;5.20;4.80;;;;;;;18.62;52.99;94350.22;5043318;28;20731;-70
2022/05/08 14:36:01;;;;;;;7.55;4.85;;;;;;;18.79;53.78;94352.47;5044350;28;20284;-70
2022/05/08 14:36:50;;;;;;;5.10;4.60;;;;;;;18.85;52.78;94349.91;5071085;28;20611;-70
2022/05/08 14:39:35;;;;;;;7.13;5.63;;;;;;;19.13;52.28;94355.47;5042361;28;20188;-70
2022/05/08 14:42:20;;;;;;;6.90;5.60;;;;;;;19.01;53.41;94354.91;5048217;28;20193;-70
2022/05/08 14:45:05;;;;;;;6.70;5.13;;;;;;;18.50;53.06;94349.63;5041455;28;20243;-69
2022/05/08 14:47:49;;;;;;;6.47;5.87;;;;;;;18.40;53.90;94346.25;5056122;28;20213;-70
2022/05/08 14:50:34;;;;;;;5.90;5.40;;;;;;;17.54;55.98;94354.66;5050870;28;20606;-69
2022/05/08 14:53:18;;;;;;;7.03;6.33;;;;;;;17.77;55.45;94352.34;5057299;28;20248;-69
2022/05/08 14:56:04;;;;;;;6.57;5.97;;;;;;;17.29;56.51;94349.78;5043208;28;20640;-69
2022/05/08 14:58:49;;;;;;;7.20;6.20;;;;;;;17.56;55.88;94343.44;5037394;28;20200;-69
2022/05/08 15:01:34;;;;;;;7.23;6.63;;;;;;;17.63;56.64;94345.97;5054284;28;20201;-69
2022/05/08 15:04:18;;;;;;;8.67;6.80;;;;;;;17.59;57.01;94347.84;5055918;28;20263;-68
2022/05/08 15:07:03;;;;;;;8.27;6.47;;;;;;;17.22;57.64;94345.91;5049156;28;20224;-70
2022/05/08 15:09:48;;;;;;;6.50;6.00;;;;;;;17.14;58.11;94341.94;5055396;28;20271;-70
2022/05/08 15:12:33;;;;;;;7.13;6.53;;;;;;;18.07;56.80;94344.69;5043933;28;20751;-70
2022/05/08 15:15:18;;;;;;;6.60;5.97;;;;;;;18.01;57.04;94341.53;5055751;28;20208;-70
2022/05/08 15:21:06;;;;;;;6.70;6.00;;;;;;;18.30;57.00;94354.28;5056902;28;20700;-70
2022/05/08 15:23:50;;;;;;;7.10;6.40;;;;;;;18.59;55.47;94345.81;5041374;28;20227;-69
2022/05/08 15:26:35;;;;;;;6.75;6.15;;;;;;;18.19;55.90;94353.06;5037205;28;20201;-70
2022/05/08 15:29:19;;;;;;;6.77;6.07;;;;;;;18.06;56.24;94360.22;5041616;28;20185;-70
2022/05/08 15:32:08;;;;;;;24.67;21.58;;;;;;;18.60;55.31;94352.97;5041100;28;20257;-70
2022/05/08 15:34:53;;;;;;;13.98;11.88;;;;;;;18.28;55.22;94363.44;5042999;28;20686;-69
2022/05/08 15:37:37;;;;;;;60.40;37.73;;;;;;;18.23;55.60;94355.34;5039098;28;20224;-70
2022/05/08 15:40:23;;;;;;;7.53;6.03;;;;;;;18.16;56.97;94363.56;5040399;28;20193;-68
2022/05/08 15:43:08;;;;;;;6.50;6.00;;;;;;;18.13;56.03;94366.94;5040826;28;20568;-69
2022/05/08 15:45:54;;;;;;;5.43;4.97;;;;;;;18.04;55.56;94362.94;5046258;28;20251;-69
2022/05/08 15:48:40;;;;;;;70.70;56.67;;;;;;;17.79;56.43;94372.31;5049463;28;20197;-69
2022/05/08 15:51:25;;;;;;;133.20;105.10;;;;;;;17.36;57.01;94360.09;5053978;28;20189;-69
2022/05/08 15:54:12;;;;;;;339.30;261.70;;;;;;;17.59;56.45;94376.19;5042588;28;20933;-68
2022/05/08 15:56:56;;;;;;;101.70;65.70;;;;;;;18.23;56.10;94366.69;5040000;28;20197;-70
2022/05/08 15:59:45;;;;;;;13.47;11.80;;;;;;;18.24;55.63;94368.16;5048424;28;20282;-69
2022/05/08 16:02:29;;;;;;;6.43;5.87;;;;;;;18.88;54.07;94365.69;5038811;28;20681;-70
2022/05/08 16:05:14;;;;;;;7.03;6.37;;;;;;;18.83;53.52;94375.38;5049841;28;20571;-69
2022/05/08 16:07:59;;;;;;;5.63;5.13;;;;;;;18.44;54.63;94369.19;5048524;28;20291;-69
2022/05/08 16:10:43;;;;;;;5.70;5.20;;;;;;;18.25;54.78;94367.53;5039660;28;20196;-70
2022/05/08 16:25:45;;;;;;;8.75;5.80;;;;;;;19.50;53.31;94364.31;5064615;28;20195;-70
2022/05/08 16:28:41;;;;;;;7.25;5.40;;;;;;;19.89;52.36;94363.16;5037695;28;20239;-69
2022/05/08 16:31:41;;;;;;;6.05;5.47;;;;;;;19.64;52.33;94362.06;5053736;28;20192;-69
2022/05/08 16:34:25;;;;;;;5.28;4.75;;;;;;;18.63;54.64;94360.22;5055433;28;20254;-70
2022/05/08 16:37:10;;;;;;;5.50;5.10;;;;;;;18.40;55.63;94360.44;5055595;28;20231;-69
2022/05/08 16:39:54;;;;;;;5.75;5.22;;;;;;;18.12;56.02;94362.63;5043444;28;20213;-69
2022/05/08 16:42:38;;;;;;;8.63;5.60;;;;;;;18.00;56.69;94373.34;5070239;28;20230;-69
2022/05/08 16:45:27;;;;;;;7.17;5.93;;;;;;;19.11;54.77;94363.88;5036218;28;20197;-69
2022/05/08 16:48:12;;;;;;;6.50;5.57;;;;;;;18.80;54.68;94367.41;5074589;28;20209;-70
2022/05/08 16:50:56;;;;;;;6.15;5.55;;;;;;;18.66;54.82;94361.78;5046453;28;20234;-69
2022/05/08 16:53:41;;;;;;;5.63;5.13;;;;;;;18.59;55.46;94362.84;5037793;28;20212;-69
2022/05/08 16:56:27;;;;;;;6.07;5.57;;;;;;;18.09;55.91;94358.94;5041408;28;20196;-69
2022/05/08 16:59:11;;;;;;;7.20;5.90;;;;;;;17.52;58.25;94365.88;5038766;28;20746;-69
2022/05/08 17:01:56;;;;;;;5.97;5.47;;;;;;;17.81;57.96;94360.34;5052364;28;20311;-68
2022/05/08 17:04:42;;;;;;;6.30;5.70;;;;;;;17.56;59.16;94360.44;5033251;28;20205;-69
2022/05/08 17:07:28;;;;;;;6.27;5.57;;;;;;;17.12;59.53;94358.78;5041218;28;20232;-69
2022/05/08 17:10:13;;;;;;;6.10;5.60;;;;;;;17.35;59.49;94365.03;5056835;28;20250;-69
2022/05/08 17:12:57;;;;;;;7.10;5.70;;;;;;;17.34;59.19;94369.22;5037619;28;20204;-69
2022/05/08 17:15:48;;;;;;;6.30;5.70;;;;;;;17.13;60.20;94366.66;5055994;28;20200;-69
2022/05/08 17:18:33;;;;;;;6.20;5.60;;;;;;;16.79;61.13;94368.34;5046124;28;20197;-69
2022/05/08 17:21:17;;;;;;;6.77;6.10;;;;;;;16.43;62.29;94371.94;5044508;28;20224;-69
2022/05/08 17:24:01;;;;;;;6.90;6.20;;;;;;;16.52;62.18;94374.63;5075402;28;20181;-69
2022/05/08 17:29:48;;;;;;;6.60;6.00;;;;;;;16.35;63.51;94377.88;5057235;28;20223;-69
2022/05/08 17:32:32;;;;;;;8.03;6.03;;;;;;;16.19;63.54;94371.28;5040087;28;20248;-69
2022/05/08 17:35:17;;;;;;;6.60;5.93;;;;;;;16.12;63.94;94366.63;5057957;28;20208;-68
2022/05/08 17:38:02;;;;;;;7.13;6.50;;;;;;;16.10;63.92;94375.03;5042285;28;20209;-69
2022/05/08 17:40:46;;;;;;;7.70;6.50;;;;;;;15.82;65.47;94379.75;5044095;28;20277;-69
2022/05/08 17:43:32;;;;;;;8.03;7.17;;;;;;;15.65;65.29;94383.69;5024438;28;20655;-68
2022/05/08 17:46:18;;;;;;;7.53;6.90;;;;;;;15.66;65.28;94388.00;5030684;28;20285;-69
2022/05/08 17:49:04;;;;;;;7.37;6.50;;;;;;;15.56;65.75;94393.03;5054121;28;20243;-69
2022/05/08 17:51:48;;;;;;;7.30;6.60;;;;;;;15.34;66.81;94389.56;5038844;28;20240;-69
2022/05/08 17:54:32;;;;;;;8.00;7.20;;;;;;;15.55;65.96;94385.19;5043801;28;20212;-69
2022/05/08 17:57:19;;;;;;;11.07;6.90;;;;;;;15.27;66.52;94384.16;5043849;28;20327;-69
2022/05/08 18:00:05;;;;;;;8.17;7.40;;;;;;;15.28;66.81;94385.63;5070568;28;20201;-68
2022/05/08 18:06:01;;;;;;;7.63;6.93;;;;;;;15.01;67.27;94391.00;5064277;28;20193;-68
2022/05/08 18:08:46;;;;;;;8.23;7.43;;;;;;;15.01;67.35;94396.63;5063162;28;20271;-69
2022/05/08 18:11:30;;;;;;;8.93;7.43;;;;;;;14.83;68.05;94394.16;5046452;28;20694;-68
2022/05/08 18:14:15;;;;;;;7.67;6.97;;;;;;;14.73;68.08;94402.00;5065360;28;20247;-68
2022/05/08 18:16:59;;;;;;;8.37;7.57;;;;;;;14.85;67.34;94402.75;5063711;28;20193;-68
2022/05/08 18:19:43;;;;;;;8.63;7.80;;;;;;;14.80;67.37;94398.22;5055900;28;20568;-69
2022/05/08 18:22:28;;;;;;;9.80;8.83;;;;;;;14.65;67.71;94398.66;5054651;28;20209;-69
2022/05/08 18:25:12;;;;;;;12.00;8.40;;;;;;;14.43;68.62;94400.78;5055950;28;20301;-69
2022/05/08 18:27:57;;;;;;;9.13;7.93;;;;;;;14.34;69.50;94400.81;5035422;28;20560;-69
2022/05/08 18:30:41;;;;;;;8.67;7.87;;;;;;;14.46;68.57;94401.63;5039640;28;20634;-68
2022/05/08 18:33:26;;;;;;;9.07;7.63;;;;;;;14.31;68.97;94402.06;5066530;28;20258;-69
2022/05/08 18:36:13;;;;;;;9.27;8.37;;;;;;;14.17;69.96;94399.03;5070436;28;20221;-69
2022/05/08 18:39:01;;;;;;;13.70;10.67;;;;;;;14.11;69.85;94407.84;5039983;28;20193;-68
2022/05/08 18:41:46;;;;;;;10.93;9.90;;;;;;;14.03;70.31;94404.47;5054369;28;20285;-68
2022/05/08 18:44:31;;;;;;;9.20;8.40;;;;;;;14.00;70.38;94408.53;5044502;28;20193;-68
2022/05/08 18:47:16;;;;;;;8.90;8.10;;;;;;;13.93;70.72;94417.91;5041077;28;20197;-68
2022/05/08 18:50:00;;;;;;;8.93;8.07;;;;;;;13.87;70.84;94413.94;5042104;28;20189;-69
2022/05/08 18:52:44;;;;;;;9.77;7.80;;;;;;;13.83;70.90;94422.09;5055182;28;20646;-68
2022/05/08 18:55:30;;;;;;;8.30;7.60;;;;;;;13.68;71.55;94423.25;5043480;28;20703;-66
2022/05/08 18:58:15;;;;;;;10.83;8.10;;;;;;;13.67;71.62;94433.03;5057051;28;20596;-68
2022/05/08 19:01:00;;;;;;;8.83;8.03;;;;;;;13.64;71.79;94428.59;5056296;28;20200;-69
2022/05/08 19:03:43;;;;;;;10.07;8.30;;;;;;;13.59;72.23;94438.09;5041837;28;20196;-69
2022/05/08 19:06:29;;;;;;;9.63;8.73;;;;;;;13.54;72.29;94447.59;5056108;28;20215;-68
2022/05/08 19:09:14;;;;;;;10.00;8.60;;;;;;;13.45;72.76;94439.97;5036463;28;20682;-69
2022/05/08 19:11:59;;;;;;;11.20;10.10;;;;;;;13.42;73.01;94439.06;5066582;28;20232;-68
2022/05/08 19:14:43;;;;;;;10.33;9.17;;;;;;;13.42;72.58;94452.41;5054944;28;20256;-69
2022/05/08 19:17:27;;;;;;;11.43;8.87;;;;;;;13.32;72.96;94458.09;5056334;28;20209;-68
2022/05/08 19:20:13;;;;;;;10.13;8.57;;;;;;;13.27;72.92;94454.22;5045888;28;20242;-68
2022/05/08 19:22:57;;;;;;;9.33;8.43;;;;;;;13.26;73.23;94458.41;5034031;28;20208;-69
2022/05/08 19:25:42;;;;;;;9.93;8.93;;;;;;;13.25;73.27;94467.44;5044262;28;20228;-69
2022/05/08 19:28:26;;;;;;;10.50;8.70;;;;;;;13.22;73.42;94460.16;5039351;28;20379;-68
2022/05/08 19:40:21;;;;;;;9.87;8.90;;;;;;;13.05;74.02;94468.78;5056490;28;20200;-68
2022/05/08 19:43:05;;;;;;;14.07;9.07;;;;;;;12.96;74.57;94471.03;5042257;28;20226;-68
2022/05/08 19:45:49;;;;;;;10.43;9.43;;;;;;;12.91;74.67;94474.13;5056118;28;20220;-68
2022/05/08 19:48:36;;;;;;;11.53;10.33;;;;;;;12.86;74.81;94467.50;5040109;28;20251;-68
2022/05/08 19:51:21;;;;;;;13.83;11.57;;;;;;;12.81;75.00;94476.25;5055007;28;20684;-67
2022/05/08 19:54:06;;;;;;;12.27;11.00;;;;;;;12.81;75.02;94476.25;5063172;28;20251;-68
2022/05/08 19:56:51;;;;;;;14.00;11.60;;;;;;;12.81;74.92;94481.88;5061159;28;20201;-68
2022/05/08 19:59:38;;;;;;;12.13;10.70;;;;;;;12.78;74.97;94477.41;5054123;28;20235;-69
2022/05/08 20:02:27;;;;;;;10.47;9.43;;;;;;;12.82;74.72;94483.34;5056112;28;20561;-68
2022/05/08 20:05:14;;;;;;;10.67;9.67;;;;;;;12.76;74.70;94480.84;5040276;28;20204;-68
2022/05/08 20:08:00;;;;;;;10.50;8.67;;;;;;;12.71;75.06;94481.13;5044389;28;20475;-68
2022/05/08 20:10:44;;;;;;;10.27;9.20;;;;;;;12.64;75.38;94482.78;5038089;28;21009;-69
2022/05/08 20:13:29;;;;;;;10.17;9.27;;;;;;;12.61;75.71;94475.50;5065714;28;20213;-68
2022/05/08 20:16:15;;;;;;;10.03;8.97;;;;;;;12.61;75.50;94481.13;5040564;28;20204;-68
2022/05/08 20:19:00;;;;;;;10.03;8.60;;;;;;;12.60;75.59;94481.72;5045364;28;20204;-68
2022/05/08 20:22:05;;;;;;;9.77;8.87;;;;;;;12.57;75.80;94484.41;5080947;28;20284;-68
2022/05/08 20:24:52;;;;;;;10.23;9.33;;;;;;;12.61;75.80;94486.00;5040548;28;20216;-68
2022/05/08 20:27:36;;;;;;;10.37;9.27;;;;;;;12.54;75.80;94488.38;5068707;28;20251;-68
2022/05/08 20:30:21;;;;;;;10.93;9.73;;;;;;;12.51;75.93;94486.78;5069693;28;20720;-68
2022/05/08 20:33:06;;;;;;;9.73;8.67;;;;;;;12.51;75.98;94492.41;5054680;28;20236;-68
2022/05/08 20:35:51;;;;;;;10.70;9.80;;;;;;;12.49;76.11;94497.84;5042845;28;20213;-68
2022/05/08 20:38:36;;;;;;;10.83;9.73;;;;;;;12.46;75.97;94493.44;5068779;28;20224;-68
2022/05/08 20:41:20;;;;;;;10.10;9.10;;;;;;;12.38;76.07;94498.44;5050771;28;20200;-68
2022/05/08 20:44:07;;;;;;;11.20;10.00;;;;;;;12.27;76.15;94504.66;5068550;28;20273;-68
2022/05/08 20:46:52;;;;;;;11.03;9.83;;;;;;;12.15;76.86;94498.88;5041608;28;20665;-68
2022/05/08 20:49:36;;;;;;;10.63;9.73;;;;;;;12.03;77.09;94509.22;5063373;28;20225;-68
2022/05/08 20:52:24;;;;;;;11.37;10.27;;;;;;;11.86;76.88;94505.75;5063733;28;20313;-68
2022/05/08 20:55:08;;;;;;;15.47;12.37;;;;;;;11.75;77.39;94507.78;5053984;28;20756;-68
2022/05/08 20:57:53;;;;;;;13.47;12.23;;;;;;;11.55;77.98;94511.81;5064619;28;20271;-68
2022/05/08 21:00:37;;;;;;;13.87;12.57;;;;;;;11.26;78.49;94513.75;5041384;28;20269;-68
2022/05/08 21:03:21;;;;;;;15.50;14.03;;;;;;;11.18;79.47;94513.13;5043218;28;20674;-67
2022/05/08 21:09:09;;;;;;;16.30;14.70;;;;;;;10.83;79.67;94512.47;5059453;28;20286;-70
2022/05/08 21:11:55;;;;;;;15.87;14.27;;;;;;;10.69;79.95;94517.69;5047263;28;20194;-69
2022/05/08 21:14:40;;;;;;;18.10;16.30;;;;;;;10.76;80.38;94513.31;5050136;28;20193;-69
2022/05/08 21:17:26;;;;;;;17.27;15.40;;;;;;;10.69;80.92;94516.94;5074596;28;20197;-68
2022/05/08 21:20:10;;;;;;;15.80;14.20;;;;;;;10.45;80.26;94512.91;5030437;28;20259;-68
2022/05/08 21:22:55;;;;;;;16.07;14.37;;;;;;;10.29;80.65;94514.41;5043959;28;20204;-68
2022/05/08 21:25:39;;;;;;;17.50;15.67;;;;;;;10.19;80.79;94519.16;5058412;28;20692;-68
2022/05/08 21:28:23;;;;;;;21.77;19.23;;;;;;;10.37;82.24;94518.59;5060263;28;20568;-68
2022/05/08 21:31:08;;;;;;;21.37;19.13;;;;;;;10.37;81.85;94517.88;5044239;28;20203;-68
2022/05/08 21:33:54;;;;;;;25.33;20.30;;;;;;;10.36;81.62;94517.13;5041372;28;20213;-68
2022/05/08 21:36:38;;;;;;;19.27;17.33;;;;;;;10.20;81.52;94515.06;5056355;28;20228;-68
2022/05/08 21:39:22;;;;;;;24.10;19.90;;;;;;;10.08;81.85;94518.31;5043748;28;20221;-65
2022/05/08 21:42:07;;;;;;;19.77;17.83;;;;;;;9.91;82.00;94521.09;5046822;28;20204;-66
2022/05/08 21:44:51;;;;;;;19.70;17.60;;;;;;;9.78;81.70;94520.66;5035564;28;20222;-66
2022/05/08 21:47:38;;;;;;;24.17;19.40;;;;;;;9.70;81.95;94515.13;5043803;28;20710;-66
2022/05/08 21:50:23;;;;;;;21.00;18.43;;;;;;;9.74;82.93;94512.66;5043409;28;20327;-66
2022/05/08 21:53:07;;;;;;;23.90;21.37;;;;;;;9.69;82.52;94519.22;5050100;28;20236;-65
2022/05/08 21:55:52;;;;;;;26.23;23.10;;;;;;;9.73;82.96;94527.97;5043800;28;20201;-64
2022/05/08 21:58:36;;;;;;;28.53;23.37;;;;;;;9.85;83.21;94526.19;5063221;28;20194;-65
2022/05/08 22:01:21;;;;;;;24.13;20.63;;;;;;;9.76;82.82;94526.81;5046475;28;20218;-66
2022/05/08 22:04:05;;;;;;;28.27;23.37;;;;;;;9.77;83.49;94531.09;5032235;28;20201;-66
2022/05/08 22:06:50;;;;;;;25.27;22.43;;;;;;;9.78;83.14;94531.84;5046023;28;20723;-65
2022/05/08 22:09:36;;;;;;;28.63;23.93;;;;;;;9.71;83.46;94528.53;5068420;28;20243;-66
2022/05/08 22:12:20;;;;;;;25.07;19.77;;;;;;;9.59;82.84;94526.78;5039057;28;20245;-66
2022/05/08 22:15:05;;;;;;;27.80;22.27;;;;;;;9.52;83.07;94533.16;5041154;28;20201;-66
2022/05/08 22:17:50;;;;;;;25.53;20.77;;;;;;;9.42;83.07;94540.72;5069564;28;20209;-66
2022/05/08 22:20:35;;;;;;;27.20;21.77;;;;;;;9.36;83.07;94542.97;5041615;28;20236;-66
2022/05/08 22:23:19;;;;;;;26.83;22.20;;;;;;;9.24;83.12;94548.28;5050202;28;20259;-66
2022/05/08 22:26:03;;;;;;;23.33;20.07;;;;;;;9.18;83.43;94545.72;5064818;28;20653;-66
2022/05/08 22:28:48;;;;;;;27.50;21.77;;;;;;;9.07;82.97;94554.53;5040918;28;20200;-66
2022/05/08 22:31:32;;;;;;;26.70;21.80;;;;;;;9.00;83.49;94546.19;5035364;28;20252;-66
2022/05/08 22:34:17;;;;;;;23.30;20.40;;;;;;;8.94;83.70;94552.00;5057666;28;20201;-66
2022/05/08 22:37:01;;;;;;;31.57;25.60;;;;;;;8.86;83.67;94554.06;5043701;28;20188;-66
2022/05/08 22:39:46;;;;;;;30.07;24.70;;;;;;;8.87;84.07;94544.38;5047453;28;20193;-66
2022/05/08 22:42:31;;;;;;;29.17;23.53;;;;;;;8.92;84.54;94540.63;5036182;28;20240;-65
2022/05/08 22:45:17;;;;;;;31.33;24.27;;;;;;;8.91;84.15;94548.25;5039204;28;20221;-65
2022/05/08 22:48:01;;;;;;;31.87;22.47;;;;;;;8.78;83.88;94542.91;5051381;28;20251;-66
2022/05/08 22:50:45;;;;;;;33.77;26.17;;;;;;;8.68;83.78;94544.09;5056600;28;20332;-65
2022/05/08 22:53:30;;;;;;;34.00;24.30;;;;;;;8.63;84.11;94545.03;5057734;28;20205;-66
2022/05/08 22:56:15;;;;;;;36.87;26.73;;;;;;;8.60;84.08;94537.78;5043796;28;20289;-65
2022/05/08 22:59:00;;;;;;;31.43;25.03;;;;;;;8.57;84.50;94541.72;5033831;28;20232;-66
2022/05/08 23:01:46;;;;;;;35.17;25.67;;;;;;;8.45;84.24;94544.94;5082006;28;20247;-65
2022/05/08 23:04:30;;;;;;;38.87;24.77;;;;;;;8.39;84.51;94538.06;5048722;28;20193;-66
2022/05/08 23:07:15;;;;;;;34.23;25.17;;;;;;;8.28;83.93;94541.19;5042078;28;20207;-65
2022/05/08 23:09:59;;;;;;;36.93;24.17;;;;;;;8.22;84.37;94538.59;5066987;28;20215;-66
2022/05/08 23:12:43;;;;;;;39.20;25.93;;;;;;;8.14;84.57;94537.91;5043137;28;20212;-65
2022/05/08 23:15:28;;;;;;;36.17;26.33;;;;;;;8.04;84.41;94523.75;5039533;28;20236;-65
2022/05/08 23:18:14;;;;;;;36.83;26.97;;;;;;;8.05;84.56;94530.09;5050637;28;20193;-66
2022/05/08 23:21:02;;;;;;;41.70;26.77;;;;;;;7.95;84.20;94529.19;5052385;28;20204;-65
2022/05/08 23:23:46;;;;;;;40.60;27.17;;;;;;;7.87;84.20;94525.66;5042742;28;20346;-66
2022/05/08 23:26:31;;;;;;;38.70;27.13;;;;;;;7.78;84.37;94520.66;5043033;28;20258;-65
2022/05/08 23:29:15;;;;;;;46.33;27.47;;;;;;;7.72;84.44;94521.56;5038961;28;20674;-65
2022/05/08 23:32:00;;;;;;;43.50;29.43;;;;;;;7.68;84.42;94521.22;5070301;28;20560;-65
2022/05/08 23:34:44;;;;;;;43.53;28.33;;;;;;;7.80;85.49;94523.63;5056255;28;20310;-64
2022/05/08 23:37:29;;;;;;;51.27;28.97;;;;;;;7.95;85.87;94515.25;5056880;28;20294;-65
2022/05/08 23:40:16;;;;;;;50.47;30.87;;;;;;;8.36;86.22;94514.78;5034961;28;20189;-65
2022/05/08 23:43:01;;;;;;;58.10;33.83;;;;;;;8.46;86.42;94507.28;5056719;28;20220;-65
2022/05/08 23:45:45;;;;;;;62.63;36.20;;;;;;;8.71;85.95;94506.63;5070482;28;20196;-65
2022/05/08 23:48:29;;;;;;;52.20;31.07;;;;;;;8.84;85.57;94506.38;5053998;28;20197;-65
2022/05/08 23:51:23;;;;;;;57.73;35.97;;;;;;;8.75;85.72;94501.41;5021908;28;20229;-65
2022/05/08 23:54:07;;;;;;;54.53;34.97;;;;;;;8.67;85.89;94507.03;5022267;28;20317;-65
2022/05/08 23:56:51;;;;;;;59.47;35.07;;;;;;;8.55;86.02;94496.84;5022518;28;20550;-65
2022/05/08 23:59:35;;;;;;;60.30;35.50;;;;;;;8.28;85.31;94491.69;5079547;28;20201;-65
